Airfield :
LOGIN :

Register | Disclaimer

   EN    FR    IT 

 










Legend :    VFR   Marginal VFR   IFR   Intensive IFR   Very Intensive IFR
Visi :
Ceiling :
>= 8 km
>= 3000ft
5 to 8 km
1000 to 3000 ft
1500m to 5 km
500 to 1000 ft
800 to 1500m
200 to 500 ft
< 800m
< 200 ft
Symbols :   Thunderstorms  Fog  Heavy snow  Heavy precipitations  Wind > 20 kt
SIGMETs :     Misc.  Thunderstorms  Icing  Turbulence  Mountain Waves  Volcanic Ashes






- Airport Elevation : 1860 ft
- IATA code : GRX


LEGR - Granada

CURRENT METAR :
  • 260730Z VRB01KT 9999 FEW010 BKN040 11/11 Q1025

EXPIRED METARs :
  • 260630Z VRB02KT 9999 FEW010 BKN040 12/11 Q1025
  • 260600Z 27008KT 9999 SCT030 BKN050 12/11 Q1024
  • 260530Z 26007KT 9999 SCT030 BKN050 11/11 Q1024
  • 260500Z 25008KT 9999 SCT030 BKN050 11/11 Q1024

TAF TAF LEGR
Valid from the 26 at 03:00 until the 27 at 03:00 UTC


260200Z 2603/2703 27006KT 9999 FEW020 SCT030 TX16/2615Z TN10/2606Z
PROB40
TEMPO 2603/2608 4000 -RADZ BR BKN010
PROB30
TEMPO 2604/2608 0800 FG
PROB40
TEMPO 2623/2703 3000 BR BKN005



MET'MAP, your aeronautical weather chart ! - Copyright ORBIFLY December 2007 - Disclaimer

ORBIFLY MET'MAP TEAM :

Programming & Development : Alexandra Zaïnal
Concept & original design : Baudouin d'Aumeries
Assistance for programming : Marc-Olivier Méhu
Technical & hardware support : Manuel Goepfert

Contact : metmap@orbifly.com




SOURCES & CREDITS :

   NOAA